Date,TemperatureHighF,TemperatureAvgF,TemperatureLowF,DewpointHighF,DewpointAvgF,DewpointLowF,HumidityHigh,HumidityAvg,HumidityLow,PressureMaxIn,PressureMinIn,WindSpeedMaxMPH,WindSpeedAvgMPH,GustSpeedMaxMPH,PrecipitationSumIn
2013-1-1,7.5,-0.2,-7.6,-7.6,-14.8,-21.7,49,49,49,29.32,29.14,0,0,0,0.04
2013-1-2,7.9,1.4,-8.3,-7.3,-13.3,-22.4,49,49,49,29.47,29.32,0,0,0,0.00
2013-1-3,7.9,1.2,-6.3,-7.5,-13.5,-20.5,49,49,49,29.50,29.38,0,0,0,0.00
2013-1-4,8.1,1.7,-5.8,-7.3,-13.0,-20.0,49,49,49,29.38,29.26,0,0,0,0.00
2013-1-5,7.9,1.1,-6.3,-7.3,-13.5,-20.5,49,49,49,29.59,29.50,0,0,0,0.00
2013-1-6,8.1,1.8,-6.7,-7.3,-12.9,-20.8,49,49,49,29.53,29.29,0,0,0,0.04
2013-1-7,8.1,1.0,-6.3,-7.1,-13.7,-20.5,49,49,49,29.62,29.38,0,0,0,0.00
2013-1-10,8.8,1.6,-6.7,-6.6,-13.1,-20.8,49,49,49,29.85,29.68,0,0,0,0.00
2013-1-11,9.1,3.4,-4.7,-6.1,-11.4,-19.0,49,49,49,29.85,29.74,0,0,0,0.00
2013-1-12,8.1,3.3,-2.0,-7.1,-11.6,-16.5,49,49,49,29.50,0.00,0,0,0,0.00
2013-1-13,8.4,2.5,-4.4,-6.8,-12.3,-18.7,49,49,49,29.50,29.35,0,0,0,0.00
2013-1-14,9.3,2.0,-4.4,-6.0,-12.7,-18.7,49,49,49,29.65,29.26,0,0,0,0.09
2013-1-15,9.3,2.1,-5.3,-6.0,-12.6,-19.5,49,49,49,29.68,29.56,0,0,0,0.12
2013-1-16,7.3,0.4,-7.4,-7.8,-14.3,-21.5,49,49,49,29.56,29.17,0,0,0,0.00
2013-1-17,8.1,2.2,-4.2,-7.1,-12.5,-18.5,49,49,49,29.38,29.23,0,0,0,0.04
2013-1-19,8.1,2.4,-5.8,-7.1,-12.4,-20.0,49,49,49,29.35,29.23,0,0,0,0.25
2013-1-20,14.4,3.8,-5.8,-1.3,-11.2,-24.0,49,49,48,29.35,29.00,0,0,0,0.00
2013-1-21,14.2,5.1,-5.6,-1.9,-10.7,-20.8,48,47,47,29.41,29.14,0,0,0,0.00
2013-1-22,7.9,1.6,-8.0,-8.1,-14.0,-22.8,47,47,47,29.47,29.14,0,0,0,0.00
2013-1-23,7.3,0.4,-8.3,-8.8,-15.0,-23.1,47,47,47,29.53,29.44,0,0,0,0.00
2013-1-24,7.5,0.9,-8.1,-8.5,-14.6,-23.0,47,47,47,29.68,29.41,0,0,0,0.00
2013-1-25,7.5,0.8,-8.1,-8.5,-14.7,-23.0,47,47,47,29.68,29.50,0,0,0,0.00
2013-1-26,3.7,3.1,2.7,-12.0,-12.6,-13.0,47,47,47,29.65,29.65,0,0,0,0.00
2013-1-27,12.9,2.6,-6.3,-3.5,-13.1,-21.3,47,47,47,29.82,29.65,0,0,0,0.00
2013-1-28,10.8,4.5,-4.2,-5.5,-11.3,-19.3,47,47,47,29.79,29.32,0,0,0,0.12
2013-1-29,8.4,1.8,-5.4,-7.7,-13.8,-20.5,47,47,47,29.44,29.29,0,0,0,0.25
2013-1-30,7.9,2.2,-4.4,-8.1,-13.4,-19.5,47,47,47,29.44,28.70,0,0,0,0.08
2013-1-31,10.9,2.3,-4.2,-5.3,-13.3,-19.3,47,47,47,29.09,28.41,0,0,0,0.62
2013-2-1,8.8,1.9,-5.8,-7.3,-13.7,-20.8,47,47,47,29.29,29.09,0,0,0,0.00
2013-2-2,8.4,1.6,-8.5,-7.7,-13.9,-23.3,47,47,47,29.41,29.38,0,0,0,0.00
2013-2-3,8.4,0.5,-8.5,-7.8,-15.0,-23.5,47,47,47,29.38,29.12,0,0,0,0.08
2013-2-4,8.4,1.6,-7.4,-7.7,-14.0,-22.5,47,47,47,29.29,29.12,0,0,0,0.00
2013-2-5,8.4,1.5,-8.0,-7.7,-14.1,-22.8,47,47,47,29.29,29.20,0,0,0,0.00
2013-2-6,12.2,2.8,-5.1,-4.2,-12.8,-20.1,47,47,47,29.68,29.23,0,0,0,0.00
2013-2-7,7.3,-1.3,-11.9,-8.6,-16.7,-26.5,47,47,47,29.82,29.65,0,0,0,0.00
2013-2-8,4.5,-2.5,-9.4,-11.3,-17.7,-24.3,47,47,47,29.65,29.09,0,0,0,0.00
2013-2-9,3.7,1.7,-1.1,-12.0,-13.9,-16.5,47,47,47,29.65,29.50,0,0,0,0.00
2013-2-10,7.9,2.0,-5.4,-8.1,-13.6,-20.5,47,47,47,29.76,29.65,0,0,0,0.00
2013-2-11,7.7,1.9,-5.1,-8.3,-13.7,-20.1,47,47,47,29.65,29.00,0,0,0,0.00
2013-2-12,7.3,0.9,-5.1,-8.6,-14.6,-20.1,47,47,47,29.29,29.06,0,0,0,0.13
2013-2-13,7.7,2.0,-5.1,-8.3,-13.6,-20.1,47,47,47,29.29,29.03,0,0,0,0.04
2013-2-14,9.3,1.2,-6.0,-6.8,-14.3,-21.0,47,47,47,29.32,29.06,0,0,0,0.00
2013-2-15,10.2,2.4,-5.3,-6.0,-13.2,-20.3,47,47,47,29.32,29.23,0,0,0,0.00
2013-2-16,6.4,2.2,-3.5,-9.6,-13.4,-18.6,47,47,47,29.17,29.09,0,0,0,0.00
2013-2-17,6.4,0.9,-4.7,-9.5,-14.6,-20.0,47,47,47,29.26,29.00,0,0,0,0.00
2013-2-18,6.3,1.5,-4.5,-9.6,-14.1,-19.6,47,47,47,29.53,29.26,0,0,0,0.00
2013-2-19,6.6,1.1,-4.4,-9.3,-14.4,-19.5,47,47,47,29.50,29.00,0,0,0,0.25
2013-2-20,6.6,1.4,-4.2,-9.3,-14.2,-19.3,47,47,47,29.29,29.03,0,0,0,0.00
2013-2-21,8.8,1.9,-4.4,-7.3,-13.7,-19.5,47,47,47,29.62,29.26,0,0,0,0.00
2013-2-22,9.1,2.0,-4.2,-7.0,-13.5,-19.3,47,47,47,29.71,29.59,0,0,0,0.00
2013-2-23,7.9,3.1,-5.1,-8.1,-12.5,-20.1,47,47,47,29.23,29.14,0,0,0,0.00
2013-2-24,9.5,1.9,-7.4,-6.7,-13.7,-22.3,47,47,47,29.29,29.09,0,0,0,0.00
2013-2-25,6.3,-0.6,-7.1,-9.6,-15.9,-22.0,47,47,47,29.56,29.47,0,0,0,0.00
2013-2-26,6.1,0.1,-6.3,-9.8,-15.3,-21.3,47,47,47,29.62,29.26,0,0,0,0.08
2013-2-27,5.9,0.2,-6.3,-10.0,-15.2,-21.3,47,47,47,29.26,28.85,0,0,0,1.00
2013-2-28,8.8,0.6,-5.4,-7.3,-14.9,-20.5,47,47,47,28.97,28.91,0,0,0,0.00
2013-3-1,6.3,0.2,-6.0,-9.6,-15.2,-21.0,47,47,47,29.06,28.94,0,0,0,0.00
2013-3-2,7.2,1.2,-5.6,-9.0,-14.4,-20.6,47,47,47,29.09,29.06,0,0,0,0.00
2013-3-3,7.9,0.8,-8.0,-8.1,-14.7,-22.8,47,47,47,29.09,29.00,0,0,0,0.00
2013-3-4,6.4,0.0,-8.0,-9.5,-15.4,-22.8,47,47,47,29.23,29.09,0,0,0,0.00
2013-3-5,7.2,0.3,-8.0,-8.8,-15.2,-22.8,47,47,47,29.35,29.23,0,0,0,0.00
2013-3-6,8.2,0.3,-8.0,-8.0,-15.2,-22.8,47,47,47,29.32,29.23,0,0,0,0.00
2013-3-7,98.6,7.8,-7.8,95.7,-5.6,-22.6,95,54,47,29.41,29.29,0,0,0,0.00
2013-3-8,3.4,0.2,-4.2,-6.9,-9.7,-13.9,62,62,62,29.44,29.32,0,0,0,0.08
2013-3-9,2.7,-2.0,-6.0,-7.6,-11.9,-15.6,62,62,62,29.65,29.62,0,0,0,0.00
2013-3-10,18.3,0.5,-6.3,11.7,-9.4,-15.9,75,62,62,29.71,29.62,0,0,0,0.00
2013-3-11,3.7,-3.0,-10.5,-6.4,-12.7,-19.9,62,62,62,29.65,29.44,0,0,0,0.00
2013-3-12,4.5,-1.0,-7.4,-5.7,-10.8,-17.1,62,62,62,29.44,29.03,0,0,0,0.13
2013-3-13,5.0,-0.6,-7.2,-5.2,-10.5,-17.0,62,62,62,29.23,29.12,0,0,0,0.00
2013-3-14,7.3,-1.0,-7.8,-3.3,-10.8,-17.3,62,62,62,29.26,29.17,0,0,0,0.00
2013-3-15,4.5,-0.3,-7.1,-5.7,-10.3,-16.6,62,62,62,29.29,29.06,0,0,0,0.00
2013-3-16,4.8,2.4,-0.2,-5.3,-7.7,-10.1,62,62,62,29.23,29.20,0,0,0,0.00
2013-3-17,5.0,-0.1,-6.3,-5.3,-10.0,-16.1,62,62,62,29.56,29.38,0,0,0,0.04
2013-3-18,5.0,-1.2,-8.7,-5.2,-11.1,-18.2,62,62,62,29.65,29.35,0,0,0,0.00
2013-3-19,8.2,-0.1,-7.1,-2.1,-10.0,-16.6,62,62,62,29.35,29.03,0,0,0,0.21
2013-3-20,5.7,-0.8,-8.5,-4.5,-10.7,-18.0,62,62,62,29.20,29.09,0,0,0,0.12
2013-3-21,6.1,-1.1,-8.1,-4.1,-11.0,-17.8,62,62,62,29.17,28.97,0,0,0,0.00
2013-3-22,5.9,-0.1,-8.1,-4.3,-10.0,-17.8,62,62,62,29.12,29.06,0,0,0,0.00
2013-3-23,8.6,1.3,-7.1,-1.9,-8.7,-16.6,62,62,62,29.26,0.00,0,0,0,0.00
2013-3-24,21.4,0.2,-7.1,9.7,-9.3,-16.6,70,63,62,29.26,29.06,0,0,0,0.00
2013-3-25,7.0,-0.4,-8.0,-2.5,-9.3,-16.6,65,65,65,29.06,28.82,0,0,0,0.00
2013-3-27,4.6,-0.4,-7.1,-4.5,-9.3,-15.7,65,65,65,29.32,29.29,0,0,0,0.00
2013-3-28,6.3,-0.9,-9.0,-3.3,-9.8,-17.8,65,65,65,29.44,29.29,0,0,0,0.00
2013-3-29,5.5,-0.0,-6.2,-3.7,-9.0,-14.9,65,65,65,29.47,29.41,0,0,0,0.00
2013-3-30,4.1,-0.5,-3.8,-5.0,-9.5,-12.6,65,65,65,29.47,29.44,0,0,0,0.00
2013-3-31,9.5,-0.1,-6.3,-0.4,-9.0,-15.0,65,65,65,29.47,29.26,0,0,0,0.00
2013-4-2,2.5,-3.4,-6.9,-6.6,-12.2,-15.5,65,65,65,29.41,29.38,0,0,0,0.17
2013-4-3,9.3,-1.6,-9.0,-0.5,-10.1,-16.7,68,66,65,29.62,29.41,0,0,0,0.00
2013-4-4,5.0,-2.0,-11.2,-3.6,-10.0,-18.8,68,68,68,29.71,29.41,0,0,0,0.00
2013-4-5,4.3,0.9,-9.9,-3.9,-7.2,-17.8,68,68,68,29.41,29.09,0,0,0,0.00
2013-4-6,4.8,-1.1,-7.4,-3.6,-9.1,-15.2,68,68,68,29.62,29.62,0,0,0,0.00
2013-4-7,5.0,-1.3,-9.0,-3.2,-9.3,-16.7,68,68,68,29.62,29.32,0,0,0,0.00
2013-4-8,4.6,-1.1,-7.1,-3.6,-9.1,-14.8,68,68,68,29.44,29.32,0,0,0,0.00
2013-4-9,4.3,-0.3,-5.3,-3.9,-8.3,-13.3,68,68,68,29.35,29.29,0,0,0,0.00
2013-4-10,5.2,1.9,-4.5,-3.2,-6.2,-12.6,68,68,68,29.32,29.20,0,0,0,0.00
2013-4-11,6.3,0.1,-9.8,-2.0,-7.9,-17.4,68,68,68,29.41,29.17,0,0,0,0.00
2013-4-12,6.3,6.3,6.3,-2.0,-2.0,-2.0,68,68,68,29.41,29.14,0,0,0,0.00
2013-4-13,3.7,-1.4,-6.3,-4.6,-9.4,-14.3,68,68,68,29.32,29.29,0,0,0,0.00
2013-4-14,3.9,-1.4,-8.9,-4.3,-9.4,-16.9,68,68,68,29.56,29.32,0,0,0,0.00
2013-4-15,4.1,-1.1,-7.1,-4.1,-9.1,-15.0,68,68,68,29.71,29.56,0,0,0,0.00
2013-4-16,4.1,-1.9,-8.3,-4.1,-9.8,-16.0,68,68,68,29.71,29.47,0,0,0,0.00
2013-4-17,7.7,-0.8,-7.1,-0.6,-8.9,-14.8,68,68,68,29.65,29.47,0,0,0,0.00
2013-4-18,26.4,-0.5,-9.0,19.0,-6.8,-15.2,81,74,65,29.71,29.47,0,0,0,0.00
2013-4-19,7.2,-1.4,-8.9,1.8,-6.1,-13.4,80,80,80,29.47,29.09,0,0,0,0.00
2013-4-20,4.5,-1.8,-6.9,-0.9,-6.4,-11.4,80,80,80,29.65,29.56,0,0,0,0.00
2013-4-21,7.5,-1.1,-8.0,2.7,-5.7,-12.5,80,80,80,29.94,29.65,0,0,0,0.00
2013-4-22,3.0,-1.1,-3.5,-1.7,-5.7,-8.1,80,80,80,30.00,29.85,0,0,0,0.00
2013-4-23,4.5,-1.9,-8.3,-0.3,-6.5,-12.8,80,80,80,29.85,29.47,0,0,0,0.00
2013-4-24,4.1,-0.1,-6.3,-0.7,-4.8,-10.9,80,80,80,29.47,29.17,0,0,0,0.00
2013-4-25,11.3,0.2,-4.2,4.8,-4.5,-8.8,80,80,80,29.62,29.23,0,0,0,0.00
2013-4-26,10.8,-0.1,-5.8,4.2,-4.8,-10.5,80,80,80,29.74,29.62,0,0,0,0.00
2013-4-29,3.7,0.3,-3.5,-1.0,-4.4,-8.1,80,80,80,29.59,29.56,0,0,0,0.00
2013-4-30,7.2,0.8,-3.5,2.0,-3.9,-8.1,80,80,80,29.71,29.56,0,0,0,0.00
2013-5-1,4.1,0.6,-3.1,-0.7,-4.1,-7.7,80,80,80,29.85,29.68,0,0,0,0.00
2013-5-2,14.4,0.3,-3.8,4.4,-6.9,-11.4,80,72,64,29.82,29.68,0,0,0,0.00
2013-5-3,-2.0,-2.0,-2.0,-10.9,-10.9,-10.9,65,65,65,29.79,29.71,0,0,0,0.00
2013-5-5,3.7,1.6,-2.6,-5.4,-7.4,-11.4,65,65,65,29.62,29.56,0,0,0,0.00
2013-5-6,3.6,0.1,-3.1,-5.6,-8.8,-11.9,65,65,65,29.62,29.50,0,0,0,0.00
2013-5-7,5.7,0.6,-2.6,-3.7,-8.4,-11.4,65,65,65,29.56,29.47,0,0,0,0.00
2013-5-8,5.7,1.1,-1.3,-3.5,-7.9,-10.2,65,65,65,29.50,29.35,0,0,0,1.08
2013-5-9,32.5,0.8,-8.0,28.4,-8.6,-18.1,85,64,60,29.41,29.26,0,0,0,0.91
2013-5-10,1.2,-3.2,-9.9,-9.4,-13.6,-20.0,60,60,60,29.35,29.29,0,0,0,0.04
2013-5-11,1.8,-4.2,-8.3,-8.9,-14.6,-18.5,60,60,60,29.12,0.00,0,0,0,0.33
2013-5-12,3.4,-1.5,-8.5,-7.4,-12.0,-18.8,60,60,60,29.29,29.06,0,0,0,0.00
2013-5-13,16.0,0.2,-3.6,8.2,-10.5,-14.7,76,60,56,29.47,29.29,0,0,0,0.00
2013-5-14,5.0,0.5,-4.4,-7.3,-11.5,-16.1,56,56,56,29.47,29.38,0,0,0,0.00
2013-5-16,3.4,1.5,-0.9,-8.8,-10.6,-12.9,56,56,56,29.20,29.17,0,0,0,0.00
2013-5-17,3.7,0.9,-1.7,-8.4,-11.1,-13.5,56,56,56,29.47,29.20,0,0,0,0.00
2013-5-18,2.8,0.3,-1.7,-9.3,-11.7,-13.5,56,56,56,29.68,29.65,0,0,0,0.09
2013-5-19,6.1,1.1,-2.4,-6.2,-11.0,-14.4,56,56,56,29.68,29.56,0,0,0,0.26
2013-5-20,8.8,1.3,-1.7,-3.7,-10.8,-13.5,56,56,56,29.56,29.35,0,0,0,0.00
2013-5-21,4.3,1.4,-0.2,-7.9,-10.6,-12.2,56,56,56,29.38,29.23,0,0,0,0.00
2013-5-22,4.1,1.6,-0.6,-8.1,-10.4,-12.5,56,56,56,29.32,29.20,0,0,0,0.00
2013-5-23,8.6,2.6,-0.2,-3.9,-9.5,-12.3,56,56,56,29.29,29.14,0,0,0,2.57
2013-5-24,6.3,1.9,0.0,-6.1,-10.1,-12.0,56,56,56,29.26,29.09,0,0,0,0.29
2013-5-25,0.7,-1.0,-2.2,-11.3,-12.9,-14.0,56,56,56,29.35,29.32,0,0,0,0.87
2013-5-26,3.7,1.0,-2.2,-8.4,-11.0,-14.0,56,56,56,29.56,29.29,0,0,0,0.87
2013-5-27,4.8,1.3,-1.8,-7.4,-10.8,-13.7,56,56,56,29.59,29.47,0,0,0,0.00
2013-5-28,4.8,0.6,-1.8,-7.4,-11.4,-13.7,56,56,56,29.59,29.50,0,0,0,0.29
2013-5-29,5.0,1.9,-2.2,-7.3,-10.2,-14.0,56,56,56,29.50,29.38,0,0,0,0.00
2013-5-30,5.2,2.1,-0.9,-7.1,-10.0,-12.9,56,56,56,29.53,29.44,0,0,0,0.00
2013-5-31,10.6,2.3,-1.8,-2.2,-9.8,-13.7,56,56,56,29.50,29.38,0,0,0,0.00
2013-6-1,4.6,2.9,-0.6,-7.6,-9.3,-12.5,56,56,56,29.32,29.29,0,0,0,0.00
2013-6-2,14.0,2.0,-2.6,2.3,-9.5,-13.5,59,58,56,29.32,29.14,0,0,0,0.00
2013-6-3,6.1,1.2,-3.1,-5.2,-9.8,-13.9,59,59,59,29.29,29.20,0,0,0,0.25
2013-6-4,6.1,3.2,-3.8,-5.2,-7.9,-14.5,59,59,59,29.47,29.26,0,0,0,0.00
2013-6-5,5.9,5.9,5.9,-5.3,-5.3,-5.3,59,59,59,29.50,29.47,0,0,0,0.00
2013-6-8,2.5,0.4,-0.9,-8.6,-10.6,-11.8,59,59,59,29.44,29.41,0,0,0,0.00
2013-6-9,3.4,1.0,-2.2,-7.9,-10.0,-13.0,59,59,59,29.56,29.44,0,0,0,0.00
2013-6-10,3.6,1.5,-1.1,-7.6,-9.5,-12.0,59,59,59,29.56,29.23,0,0,0,0.79
2013-6-11,3.4,1.2,-1.3,-7.7,-9.8,-12.1,59,59,59,29.23,29.00,0,0,0,0.08
2013-6-12,3.7,1.3,-1.7,-7.4,-9.7,-12.5,59,59,59,29.23,29.09,0,0,0,0.00
2013-6-13,5.4,0.8,-3.1,-5.8,-10.2,-13.9,59,59,59,29.23,28.91,0,0,0,0.13
2013-6-14,8.1,1.3,-2.9,-3.3,-9.7,-13.7,59,59,59,29.20,28.94,0,0,0,0.00
2013-6-15,5.9,3.6,1.6,-5.5,-7.5,-9.4,59,59,59,29.38,29.35,0,0,0,0.00
2013-6-16,73.9,11.0,-1.1,69.7,0.7,-12.0,95,63,53,29.38,29.14,0,0,0,0.00
2013-6-17,6.4,4.6,2.5,-4.3,-5.9,-7.9,61,61,61,29.32,29.20,0,0,0,0.00
2013-6-18,8.6,4.6,1.8,-2.2,-5.9,-8.6,61,61,61,29.29,29.23,0,0,0,0.00
2013-6-19,7.0,5.0,3.0,-3.6,-5.5,-7.6,61,61,61,29.56,29.29,0,0,0,0.00
2013-6-20,6.4,5.2,2.5,-4.1,-5.3,-7.9,61,61,61,29.65,29.56,0,0,0,0.00
2013-6-21,6.4,4.8,2.8,-4.1,-5.7,-7.6,61,61,61,29.68,29.62,0,0,0,0.00
2013-6-22,6.4,4.5,2.7,-4.1,-6.0,-7.7,61,61,61,29.65,29.50,0,0,0,0.00
2013-6-23,6.4,4.9,2.8,-4.1,-5.6,-7.6,61,61,61,29.56,29.44,0,0,0,0.00
2013-6-24,6.4,4.9,2.5,-4.1,-5.6,-7.9,61,61,61,29.47,29.32,0,0,0,0.00
2013-6-25,6.4,4.7,2.5,-4.1,-5.8,-7.9,61,61,61,29.38,29.20,0,0,0,0.00
2013-6-26,6.4,4.7,2.5,-4.1,-5.8,-7.9,61,61,61,29.26,29.17,0,0,0,0.00
2013-6-27,8.6,4.1,-0.2,-2.1,-6.3,-10.6,61,61,61,29.23,28.94,0,0,0,0.00
2013-6-28,10.0,6.7,2.8,-0.7,-3.9,-7.7,61,61,61,28.94,28.88,0,0,0,0.00
2013-6-29,7.2,4.6,2.1,-3.6,-5.9,-8.4,61,61,61,29.09,29.09,0,0,0,0.00
2013-6-30,9.5,5.5,0.7,-1.2,-5.0,-9.6,61,61,61,29.32,29.09,0,0,0,0.00
2013-7-1,11.7,5.8,0.3,0.8,-4.7,-9.9,61,61,61,29.44,29.29,0,0,0,0.00
2013-7-2,11.7,6.1,1.2,0.8,-4.4,-9.2,61,61,61,29.56,29.44,0,0,0,0.00
2013-7-3,9.7,5.8,0.7,-1.0,-4.8,-9.6,61,61,61,29.65,29.56,0,0,0,0.00
2013-7-4,9.5,4.4,0.3,-1.2,-6.1,-9.9,61,61,61,29.65,29.53,0,0,0,0.00
2013-7-5,9.5,3.4,-1.8,-1.4,-7.0,-12.0,61,61,61,29.59,29.50,0,0,0,0.00
2013-7-6,10.2,5.4,0.7,-0.5,-5.1,-9.6,61,61,61,29.53,29.44,0,0,0,0.00
2013-7-7,10.4,5.7,0.7,-0.5,-4.9,-9.6,61,61,61,29.47,29.32,0,0,0,0.00
2013-7-8,10.2,5.7,1.2,-0.7,-4.9,-9.1,61,61,61,29.44,29.35,0,0,0,0.00
2013-7-9,10.4,6.8,1.2,-0.4,-3.8,-9.1,61,61,61,29.47,29.38,0,0,0,0.04
2013-7-10,10.2,5.2,0.7,-0.5,-5.3,-9.6,61,61,61,29.41,29.20,0,0,0,0.00
2013-7-11,12.2,4.8,-2.7,1.3,-5.7,-12.8,61,61,61,29.32,29.20,0,0,0,0.00
2013-7-12,8.2,4.2,-2.4,-2.6,-6.2,-12.5,61,61,61,29.44,29.32,0,0,0,0.00
2013-7-13,10.8,6.5,0.1,-0.2,-4.1,-10.1,61,61,61,29.68,29.68,0,0,0,0.00
2013-7-14,11.7,4.3,-2.2,0.8,-6.1,-12.5,61,61,61,29.74,29.62,0,0,0,0.00
2013-7-15,12.0,4.7,-2.2,1.0,-5.7,-12.3,61,61,61,29.65,29.53,0,0,0,0.00
2013-7-16,11.8,5.8,0.0,0.8,-4.8,-10.3,61,61,61,29.59,29.53,0,0,0,0.00
2013-7-17,12.0,5.8,0.3,1.2,-4.8,-9.9,61,61,61,29.59,29.44,0,0,0,0.00
2013-7-18,11.8,5.3,0.0,1.0,-5.2,-10.4,61,61,61,29.44,29.35,0,0,0,0.00
2013-7-19,12.7,3.1,-3.5,1.9,-7.3,-13.5,61,61,61,29.38,29.20,0,0,0,0.00
2013-7-20,10.8,8.4,6.3,-0.4,-2.3,-4.3,61,61,61,29.23,29.20,0,0,0,0.00
2013-7-21,10.8,3.7,-2.4,0.0,-6.7,-12.5,61,61,61,29.35,29.23,0,0,0,0.00
2013-7-22,11.7,3.5,-2.4,0.6,-6.9,-12.7,61,61,61,29.35,29.20,0,0,0,0.25
2013-7-23,11.7,3.8,-1.8,0.8,-6.7,-12.0,61,61,61,29.20,28.97,0,0,0,0.09
2013-7-24,9.3,1.5,-2.7,-1.4,-8.8,-13.0,61,61,61,29.32,29.03,0,0,0,0.00
2013-7-25,10.2,3.9,-2.0,-0.5,-6.5,-12.2,61,61,61,29.44,29.32,0,0,0,0.00
2013-7-26,9.1,4.9,2.1,-1.6,-5.6,-8.2,61,61,61,29.44,29.38,0,0,0,0.00
2013-7-27,5.5,3.6,1.6,-5.0,-6.8,-8.7,61,61,61,29.38,29.35,0,0,0,0.00
2013-7-28,9.3,4.4,-0.6,-1.4,-6.1,-10.8,61,61,61,29.38,29.32,0,0,0,0.29
2013-7-29,14.4,5.1,-1.3,2.9,-5.9,-11.5,61,60,54,29.47,29.35,0,0,0,0.00
2013-7-30,11.3,7.0,1.9,-2.1,-6.1,-10.9,54,54,54,29.56,29.47,0,0,0,0.00
2013-7-31,9.3,5.3,0.7,-4.0,-7.8,-12.1,54,54,54,29.56,29.44,0,0,0,0.00
2013-8-1,8.8,4.4,-1.8,-4.5,-8.6,-14.4,54,54,54,29.44,29.23,0,0,0,0.58
2013-8-2,9.7,3.9,-3.8,-3.6,-9.0,-16.3,54,54,54,29.32,29.20,0,0,0,0.00
2013-8-3,13.3,4.2,-2.7,-0.2,-8.7,-15.3,54,54,54,29.29,29.23,0,0,0,0.09
2013-8-4,8.1,2.1,-2.6,-5.1,-10.7,-15.1,54,54,54,29.35,29.26,0,0,0,0.00
2013-8-5,8.4,2.2,-3.5,-4.8,-10.7,-15.9,54,54,54,29.44,29.35,0,0,0,0.00
2013-8-6,8.4,2.1,-3.5,-4.8,-10.7,-15.9,54,54,54,29.53,29.44,0,0,0,0.00
2013-8-7,8.4,2.2,-3.1,-5.0,-10.6,-15.6,54,54,54,29.53,29.44,0,0,0,0.00
2013-8-8,30.6,3.7,-3.3,22.0,-8.4,-15.8,70,56,54,29.44,29.41,0,0,0,1.17
2013-8-9,6.6,1.7,-0.9,-4.3,-8.9,-11.5,60,60,60,29.41,29.23,0,0,0,0.49
2013-8-11,13.3,5.6,0.7,1.8,-5.2,-9.9,60,60,60,29.44,0.00,0,0,0,0.00
2013-8-12,10.8,4.9,1.9,-0.4,-5.9,-8.7,60,60,60,29.44,29.32,0,0,0,0.00
2013-8-13,7.5,4.5,0.3,-3.5,-6.4,-10.3,60,60,60,29.32,29.09,0,0,0,0.00
2013-8-14,7.3,3.6,0.0,-3.8,-7.2,-10.6,60,60,60,29.41,29.14,0,0,0,0.00
2013-8-15,7.2,3.9,0.9,-3.8,-6.8,-9.9,60,60,60,29.53,29.41,0,0,0,0.00
2013-8-16,7.2,4.3,0.7,-3.8,-6.5,-9.9,60,60,60,29.53,29.50,0,0,0,0.00
2013-8-17,5.9,2.3,-0.8,-5.0,-8.4,-11.3,60,60,60,29.65,29.65,0,0,0,0.00
2013-8-18,7.5,2.9,-2.2,-3.5,-7.8,-12.7,60,60,60,29.65,29.50,0,0,0,0.00
2013-8-19,7.0,2.4,-2.4,-4.0,-8.3,-12.8,60,60,60,29.53,29.41,0,0,0,0.00
2013-8-20,7.2,2.3,-1.8,-3.8,-8.4,-12.3,60,60,60,29.53,29.44,0,0,0,0.00
2013-8-21,7.0,1.9,-2.0,-4.0,-8.8,-12.5,60,60,60,29.56,29.44,0,0,0,0.00
2013-8-22,12.0,2.1,-3.1,0.8,-8.6,-13.5,60,60,60,29.44,29.26,0,0,0,0.46
2013-8-23,6.3,2.0,-2.6,-4.6,-8.7,-13.0,60,60,60,29.38,29.26,0,0,0,0.00
2013-8-24,1.9,-1.0,-3.3,-8.9,-11.5,-13.7,60,60,60,29.74,29.71,0,0,0,0.00
2013-8-25,12.7,2.2,-3.6,1.3,-8.5,-14.0,60,60,60,29.76,29.59,0,0,0,0.00
2013-8-26,8.1,2.1,-3.5,-2.9,-8.6,-13.9,60,60,60,29.59,29.29,0,0,0,0.00
2013-8-27,8.4,2.9,-0.8,-2.6,-7.8,-11.3,60,60,60,29.29,29.20,0,0,0,0.00
2013-8-28,7.3,2.6,-1.7,-3.6,-8.1,-12.1,60,60,60,29.29,29.23,0,0,0,0.00
2013-8-29,7.2,2.9,0.0,-3.8,-7.8,-10.6,60,60,60,29.41,29.29,0,0,0,0.00
2013-8-30,7.2,3.3,-0.2,-3.8,-7.4,-10.9,60,60,60,29.41,29.38,0,0,0,0.00
2013-9-1,10.9,2.5,-2.2,-0.2,-8.2,-12.7,60,60,60,29.26,29.20,0,0,0,0.00
2013-9-2,8.4,2.3,-1.8,-2.8,-8.4,-12.3,60,60,60,29.20,29.12,0,0,0,0.00
2013-9-3,38.5,4.7,-2.0,31.3,-6.2,-12.7,83,60,56,29.26,29.12,0,0,0,0.00
2013-9-4,15.3,6.6,1.4,3.9,-5.5,-10.6,60,57,55,29.38,29.26,0,0,0,0.00
2013-9-8,9.7,5.0,0.3,-2.8,-7.3,-11.7,56,56,56,29.47,29.23,0,0,0,0.00
2013-9-9,10.0,5.6,0.7,-2.5,-6.7,-11.3,56,56,56,29.62,29.44,0,0,0,0.00
2013-9-10,51.8,10.9,4.1,20.6,-4.0,-8.1,56,52,21,29.56,29.44,0,0,0,0.00
2013-9-11,6.6,-0.3,-4.0,-10.4,-16.6,-20.0,45,45,45,29.50,29.35,0,0,0,0.00
2013-9-12,10.9,0.8,-3.6,-6.4,-15.5,-19.6,45,45,45,29.38,29.09,0,0,0,0.00
2013-9-13,17.2,1.0,-4.0,6.7,-9.8,-18.3,66,60,45,29.09,29.06,0,0,0,0.00
2013-9-14,6.4,3.5,0.1,-2.5,-5.3,-8.5,66,66,66,29.50,29.44,0,0,0,0.00
2013-9-15,8.6,3.1,-0.8,-0.4,-5.7,-9.4,66,66,66,29.56,29.44,0,0,0,0.05
2013-9-16,9.3,3.7,-0.8,0.3,-5.1,-9.4,66,66,66,29.62,29.41,0,0,0,0.04
2013-9-17,22.3,7.4,2.8,20.8,-0.3,-5.9,94,71,66,29.79,29.62,0,0,0,0.00
2013-9-18,29.8,20.9,7.9,21.3,17.1,-4.9,94,86,54,29.71,29.56,0,0,0,0.00
2013-9-21,11.7,6.0,1.4,-3.4,-8.7,-12.9,50,50,50,29.12,29.06,0,0,0,0.00
2013-9-22,12.6,6.9,1.0,-2.5,-7.9,-13.2,50,50,50,29.29,29.06,0,0,0,0.00
2013-9-23,12.4,6.1,0.0,-2.7,-8.6,-14.2,50,50,50,29.41,29.29,0,0,0,0.00
2013-9-24,36.3,7.0,0.0,28.8,-7.4,-14.2,74,51,46,29.41,29.26,0,0,0,0.00
2013-9-25,15.4,8.5,-0.9,3.3,-3.4,-12.1,58,57,54,29.32,29.26,0,0,0,0.00
2013-9-28,2.1,0.8,-0.2,-10.7,-12.0,-12.9,54,54,54,29.62,29.62,0,0,0,0.00
2013-9-29,14.4,6.5,-1.1,0.3,-8.0,-15.5,54,51,45,29.62,29.44,0,0,0,0.00
2013-9-30,14.4,8.0,0.5,-3.0,-8.7,-15.6,46,45,45,29.47,29.35,0,0,0,0.00
2013-10-1,15.1,8.7,2.7,1.4,-7.6,-13.8,54,47,45,29.38,29.29,0,0,0,0.00
2013-10-2,23.2,8.4,2.5,11.8,-6.5,-13.6,62,50,46,29.41,29.32,0,0,0,0.00
2013-10-3,37.0,8.0,1.0,29.5,-5.7,-12.1,80,53,51,29.50,29.41,0,0,0,0.00
2013-10-4,12.0,6.4,3.6,-1.8,-7.1,-9.9,53,53,53,29.44,29.38,0,0,0,0.00
2013-10-5,10.0,6.4,2.8,-3.7,-7.0,-10.4,53,53,53,29.47,29.44,0,0,0,0.00
2013-10-6,21.2,6.2,1.6,8.2,-6.7,-10.8,58,54,53,29.50,29.44,0,0,0,0.00
2013-10-7,45.5,10.5,2.8,31.6,-1.8,-9.6,84,57,51,29.44,29.14,0,0,0,0.00
2013-10-8,11.3,5.9,-0.9,0.5,-4.6,-11.3,61,61,61,29.71,29.35,0,0,0,0.00
2013-10-9,11.7,6.1,0.0,0.8,-4.4,-10.3,61,61,61,29.79,29.68,0,0,0,0.00
2013-10-10,13.5,6.0,-0.6,2.4,-4.5,-10.8,61,61,61,29.68,29.47,0,0,0,0.00
2013-10-11,14.4,7.4,1.6,2.0,-3.7,-9.3,61,60,52,29.47,29.41,0,0,0,0.00
2013-10-12,11.3,6.8,3.0,-2.9,-7.1,-10.6,52,52,52,29.68,29.65,0,0,0,0.00
2013-10-13,11.8,5.6,-0.4,-2.4,-8.2,-13.8,52,52,52,29.76,29.68,0,0,0,0.00
2013-10-14,5.0,2.3,-1.8,-8.8,-11.3,-15.2,52,52,52,29.74,29.62,0,0,0,0.00
2013-10-15,4.1,0.6,-2.6,-9.6,-12.9,-15.8,52,52,52,29.65,29.50,0,0,0,0.00
2013-10-16,8.6,2.0,0.0,-5.6,-11.6,-13.5,52,52,52,29.47,29.29,0,0,0,0.00
2013-10-17,4.1,-0.1,-2.2,-9.6,-13.5,-15.5,52,52,52,29.29,29.06,0,0,0,0.00
2013-10-18,12.0,-0.7,-7.8,-2.4,-14.1,-20.7,52,52,52,29.26,29.06,0,0,0,0.00
2013-10-19,4.6,2.1,-2.2,-9.1,-11.5,-15.7,52,52,52,29.14,29.12,0,0,0,0.00
2013-10-20,5.5,1.4,-4.0,-8.3,-12.1,-17.2,52,52,52,29.44,29.12,0,0,0,0.00
2013-10-21,5.7,0.9,-4.7,-8.1,-12.6,-17.9,52,52,52,29.50,29.35,0,0,0,0.00
2013-10-22,5.4,1.3,-4.5,-8.4,-12.2,-17.7,52,52,52,29.35,29.09,0,0,0,0.00
2013-10-23,20.1,1.1,-4.9,6.6,-12.0,-17.5,55,53,52,29.17,28.97,0,0,0,0.00
2013-10-24,5.4,5.4,5.4,-7.7,-7.7,-7.7,54,54,54,29.35,29.09,0,0,0,0.00
2013-10-25,8.6,1.8,-4.5,-4.8,-11.0,-17.1,54,54,54,29.47,29.32,0,0,0,0.00
2013-10-26,4.5,-0.0,-2.7,-8.8,-12.7,-15.3,54,54,54,29.26,29.23,0,0,0,0.00
2013-10-27,6.6,2.1,-3.3,-6.5,-10.7,-15.9,54,54,54,29.47,29.20,0,0,0,0.00
2013-10-28,7.2,3.4,-3.5,-6.0,-9.6,-15.9,54,54,54,29.68,29.47,0,0,0,0.00
2013-10-29,1.9,1.9,1.9,-10.9,-10.9,-10.9,54,54,54,29.76,29.68,0,0,0,0.00
2013-10-30,6.1,1.5,-2.9,-7.0,-11.3,-15.4,54,54,54,29.71,29.53,0,0,0,0.00
2013-10-31,5.9,1.3,-3.3,-7.2,-11.4,-15.8,54,54,54,29.59,29.17,0,0,0,0.00
2013-11-1,5.7,4.5,0.5,-7.3,-8.5,-12.4,54,54,54,29.17,28.91,0,0,0,0.00
2013-11-2,6.3,3.3,-0.8,-6.8,-9.6,-13.6,54,54,54,29.14,29.12,0,0,0,0.00
2013-11-3,6.3,2.6,-2.4,-6.8,-10.3,-14.9,54,54,54,29.79,29.14,0,0,0,0.00
2013-11-4,5.0,-1.3,-3.1,-8.0,-13.9,-15.6,54,54,54,29.97,29.79,0,0,0,0.00
2013-11-5,6.1,-0.6,-3.3,-7.0,-13.2,-15.8,54,54,54,30.00,29.82,0,0,0,0.00
2013-11-6,5.0,-2.2,-2.9,-8.0,-14.7,-15.4,54,54,54,29.82,29.44,0,0,0,0.00
2013-11-7,5.5,1.9,-1.1,-7.5,-10.9,-13.7,54,54,54,29.44,29.09,0,0,0,0.00
2013-11-8,5.9,1.4,-3.1,-7.3,-11.4,-15.6,54,54,54,29.38,29.26,0,0,0,0.00
2013-11-10,6.1,2.8,-2.6,-7.0,-10.0,-15.1,54,54,54,29.38,29.14,0,0,0,0.00
2013-11-11,6.4,2.0,-2.0,-6.7,-10.8,-14.6,54,54,54,29.53,29.29,0,0,0,0.00
2013-11-12,6.4,2.0,-3.1,-6.7,-10.8,-15.6,54,54,54,29.59,29.29,0,0,0,0.00
2013-11-13,6.1,2.4,-3.3,-7.0,-10.4,-15.8,54,54,54,29.68,29.59,0,0,0,0.00
2013-11-15,5.5,1.5,-1.5,-7.5,-11.3,-14.1,54,54,54,29.56,29.47,0,0,0,0.00
2013-11-16,5.4,1.7,-0.9,-7.7,-11.1,-13.6,54,54,54,29.65,29.62,0,0,0,0.00
2013-11-17,5.2,2.0,-2.0,-7.8,-10.9,-14.6,54,54,54,29.62,29.14,0,0,0,0.00
2013-11-18,5.2,2.0,-0.9,-7.8,-10.8,-13.6,54,54,54,29.14,28.97,0,0,0,0.00
2013-11-19,5.2,2.2,-1.8,-8.0,-10.6,-14.6,54,54,54,29.68,29.14,0,0,0,0.00
2013-11-20,5.4,3.2,-2.6,-7.7,-9.6,-25.1,54,54,54,29.91,29.68,0,0,0,0.00
2013-11-21,9.3,1.9,-3.1,-4.1,-10.9,-15.6,54,54,54,29.94,29.71,0,0,0,0.00
2013-11-22,14.2,2.7,-1.3,-1.0,-10.4,-14.1,54,53,52,29.71,29.35,0,0,0,0.00
2013-11-23,4.3,0.9,-3.1,-9.4,-12.6,-16.3,52,52,52,29.35,29.26,0,0,0,0.00
2013-11-24,7.7,1.7,-3.5,-6.4,-11.8,-16.7,52,52,52,29.65,29.32,0,0,0,0.00
2013-11-25,5.0,1.6,-2.6,-8.8,-11.9,-15.8,52,52,52,29.76,29.62,0,0,0,0.00
2013-11-26,5.0,1.5,-2.2,-8.8,-12.1,-15.5,52,52,52,29.62,29.14,0,0,0,0.00
2013-11-27,6.8,2.3,-2.2,-7.1,-11.2,-15.5,52,52,52,29.14,28.70,0,0,0,0.00
2013-11-28,6.6,2.6,-1.3,-7.3,-11.0,-14.6,52,52,52,29.79,29.06,0,0,0,0.00
2013-11-29,5.4,3.4,0.0,-8.4,-10.3,-13.5,52,52,52,29.91,29.76,0,0,0,0.00
2013-11-30,5.5,3.5,0.5,-8.3,-10.2,-13.0,52,52,52,29.82,29.71,0,0,0,0.00
2013-12-1,5.4,2.9,-1.3,-8.4,-10.8,-14.6,52,52,52,29.71,29.38,0,0,0,0.00
2013-12-2,5.5,2.2,-1.1,-8.3,-11.4,-14.5,52,52,52,29.29,29.23,0,0,0,0.00
2013-12-3,5.5,2.5,-1.3,-8.3,-11.1,-14.6,52,52,52,29.35,29.23,0,0,0,0.00
2013-12-4,5.5,2.5,-0.9,-8.3,-11.1,-14.3,52,52,52,29.50,29.35,0,0,0,0.00
2013-12-5,34.2,5.8,1.8,18.8,-8.2,-11.8,53,52,50,29.47,29.29,0,0,0,0.00
2013-12-6,3.2,3.2,3.2,-11.2,-11.2,-11.2,50,50,50,29.41,29.23,0,0,0,0.00
2013-12-8,6.3,3.8,0.0,-8.4,-10.7,-14.4,50,50,50,29.74,29.71,0,0,0,0.00
2013-12-9,6.4,3.2,-1.8,-8.2,-11.2,-15.9,50,50,50,29.71,29.29,0,0,0,0.00
2013-12-10,6.1,4.4,-2.0,-8.6,-10.1,-16.3,50,50,50,29.41,29.20,0,0,0,0.00
2013-12-11,6.3,1.9,-3.5,-8.4,-12.5,-17.6,50,50,50,29.62,29.41,0,0,0,0.00
2013-12-12,7.5,1.9,-2.7,-7.2,-12.5,-16.8,50,50,50,29.56,29.44,0,0,0,0.00
2013-12-13,7.2,3.1,-3.1,-7.6,-11.3,-17.1,50,50,50,29.47,29.41,0,0,0,0.00
2013-12-14,4.5,1.9,-3.1,-10.1,-12.5,-17.1,50,50,50,29.59,29.17,0,0,0,0.00
2013-12-15,7.0,1.0,-4.0,-7.7,-13.3,-17.9,50,50,50,29.17,28.85,0,0,0,0.00
2013-12-16,7.0,2.8,-2.4,-7.7,-11.6,-16.4,50,50,50,29.53,29.12,0,0,0,0.00
2013-12-17,12.0,2.8,-4.2,-3.0,-11.6,-18.1,50,50,50,29.53,29.26,0,0,0,0.00
2013-12-18,8.1,2.8,-4.0,-6.9,-11.6,-17.9,50,50,50,29.44,29.26,0,0,0,0.00
2013-12-19,6.3,2.8,-0.8,-9.2,-12.4,-15.7,48,48,48,29.44,29.32,0,0,0,0.00
2013-12-20,6.3,3.2,-0.8,-9.2,-12.0,-15.7,48,48,48,29.32,29.32,0,0,0,0.00
2013-12-21,6.4,4.2,0.7,-9.1,-11.1,-14.4,48,48,48,29.29,29.26,0,0,0,0.00
2013-12-22,15.4,4.2,0.0,1.8,-11.1,-15.1,54,48,48,29.32,29.17,0,0,0,0.00
2013-12-23,7.0,3.4,-0.6,-6.5,-9.9,-13.6,53,53,53,29.47,29.29,0,0,0,0.00
2013-12-24,12.0,2.3,-1.7,-2.3,-10.9,-14.6,53,53,53,29.62,29.44,0,0,0,0.00
2013-12-25,7.0,3.2,-2.2,-6.5,-10.1,-15.1,53,53,53,29.82,29.76,0,0,0,0.00
2013-12-26,7.0,4.0,-3.8,-6.5,-9.3,-16.6,53,53,53,29.62,29.47,0,0,0,0.00
2013-12-27,4.5,4.2,4.1,-8.9,-9.1,-9.2,53,53,53,29.59,29.59,0,0,0,0.00
2013-12-28,6.4,1.5,-3.8,-7.0,-11.6,-16.6,53,53,53,29.44,29.41,0,0,0,0.00
2013-12-29,6.3,1.9,-3.8,-7.2,-11.3,-16.6,53,53,53,29.41,28.82,0,0,0,0.00
2013-12-30,9.3,4.3,0.3,-6.0,-10.6,-14.3,49,49,49,29.50,29.47,0,0,0,0.00
2013-12-31,6.3,1.2,-4.7,-8.8,-13.5,-19.0,49,49,49,29.53,29.35,0,0,0,0.00
2014-1-1,7.2,2.1,-4.9,-8.0,-12.7,-19.2,49,49,49,29.71,29.62,0,0,0,0.00
2014-1-2,9.7,1.7,-4.4,-5.6,-13.0,-18.7,49,49,49,29.44,29.06,0,0,0,0.00